createdAt,value
2019-03-20T00:01:55.165Z,7.20
2019-03-20T00:04:25.560Z,7.15
2019-03-20T00:06:56.326Z,7.09
2019-03-20T00:09:26.457Z,7.03
2019-03-20T00:11:56.691Z,6.95
2019-03-20T00:14:26.786Z,6.91
2019-03-20T00:16:56.928Z,6.85
2019-03-20T00:19:27.062Z,6.81
2019-03-20T00:21:57.305Z,6.75
2019-03-20T00:24:27.434Z,6.73
2019-03-20T00:26:57.675Z,6.70
2019-03-20T00:29:27.809Z,6.66
2019-03-20T00:31:57.903Z,6.61
2019-03-20T00:34:27.959Z,6.58
2019-03-20T00:36:58.191Z,6.56
2019-03-20T00:39:28.325Z,6.54
2019-03-20T00:41:58.407Z,6.52
2019-03-20T00:44:28.524Z,6.48
2019-03-20T00:46:58.748Z,6.44
2019-03-20T00:49:28.819Z,6.40
2019-03-20T00:51:59.031Z,6.37
2019-03-20T00:54:29.250Z,6.34
2019-03-20T00:56:59.471Z,6.32
2019-03-20T00:59:29.762Z,6.29
2019-03-20T01:02:00.064Z,6.27
2019-03-20T01:04:30.252Z,6.24
2019-03-20T01:07:00.488Z,6.21
2019-03-20T01:09:30.754Z,6.16
2019-03-20T01:12:00.883Z,6.15
2019-03-20T01:14:31.579Z,6.12
2019-03-20T01:17:01.679Z,6.09
2019-03-20T01:19:31.762Z,6.05
2019-03-20T01:22:01.988Z,6.04
2019-03-20T01:24:32.200Z,6.04
2019-03-20T01:27:02.421Z,6.05
2019-03-20T01:29:32.506Z,6.06
2019-03-20T01:32:02.716Z,6.06
2019-03-20T01:34:33.244Z,6.06
2019-03-20T01:37:03.351Z,6.08
2019-03-20T01:39:33.498Z,6.07
2019-03-20T01:42:03.726Z,6.08
2019-03-20T01:44:33.766Z,6.08
2019-03-20T01:47:06.659Z,6.04
2019-03-20T01:49:35.887Z,6.03
2019-03-20T01:52:06.853Z,5.98
2019-03-20T01:54:36.942Z,5.92
2019-03-20T01:57:07.138Z,5.89
2019-03-20T01:59:37.218Z,5.84
2019-03-20T02:02:07.426Z,5.78
2019-03-20T02:04:37.502Z,5.75
2019-03-20T02:07:07.631Z,5.72
2019-03-20T02:09:37.687Z,5.71
2019-03-20T02:12:07.844Z,5.69
2019-03-20T02:14:38.282Z,5.68
2019-03-20T02:17:08.393Z,5.63
2019-03-20T02:19:38.522Z,5.58
2019-03-20T02:22:08.731Z,5.56
2019-03-20T02:24:38.851Z,5.54
2019-03-20T02:27:09.157Z,5.51
2019-03-20T02:29:39.279Z,5.50
2019-03-20T02:32:09.362Z,5.51
2019-03-20T02:34:39.487Z,5.51
2019-03-20T02:37:09.689Z,5.52
2019-03-20T02:39:39.735Z,5.51
2019-03-20T02:42:09.851Z,5.51
2019-03-20T02:44:39.917Z,5.53
2019-03-20T02:47:10.121Z,5.53
2019-03-20T02:49:40.258Z,5.55
2019-03-20T02:52:10.306Z,5.57
2019-03-20T02:54:40.378Z,5.58
2019-03-20T02:57:10.520Z,5.58
2019-03-20T02:59:40.673Z,5.59
2019-03-20T03:02:10.862Z,5.60
2019-03-20T03:04:40.984Z,5.62
2019-03-20T03:07:11.374Z,5.67
2019-03-20T03:09:41.780Z,5.70
2019-03-20T03:12:12.239Z,5.74
2019-03-20T03:14:42.555Z,5.75
2019-03-20T03:17:12.979Z,5.79
2019-03-20T03:19:43.250Z,5.86
2019-03-20T03:22:13.621Z,5.89
2019-03-20T03:24:44.015Z,5.98
2019-03-20T03:27:14.333Z,6.08
2019-03-20T03:29:44.640Z,6.19
2019-03-20T03:32:15.152Z,6.32
2019-03-20T03:34:45.446Z,6.43
2019-03-20T03:37:18.920Z,6.54
2019-03-20T03:39:49.278Z,6.62
2019-03-20T03:42:19.583Z,6.69
2019-03-20T03:44:50.033Z,6.75
2019-03-20T03:47:20.485Z,6.77
2019-03-20T03:49:50.901Z,6.87
2019-03-20T03:52:21.432Z,6.93
2019-03-20T03:54:51.714Z,6.98
2019-03-20T03:57:22.126Z,7.03
2019-03-20T03:59:52.499Z,7.08
2019-03-20T04:02:22.888Z,7.13
2019-03-20T04:04:53.371Z,7.18
2019-03-20T04:07:24.004Z,7.21
2019-03-20T04:09:54.279Z,7.24
2019-03-20T04:12:24.542Z,7.26
2019-03-20T04:14:54.849Z,7.28
2019-03-20T04:17:27.772Z,7.34
2019-03-20T04:19:58.200Z,7.34
2019-03-20T04:22:28.667Z,7.35
2019-03-20T04:24:58.917Z,7.36
2019-03-20T04:27:29.328Z,7.37
2019-03-20T04:29:59.829Z,7.38
2019-03-20T04:32:30.363Z,7.39
2019-03-20T04:35:00.681Z,7.40
2019-03-20T04:37:30.945Z,7.42
2019-03-20T04:40:01.207Z,7.44
2019-03-20T04:42:31.581Z,7.45
2019-03-20T04:45:02.077Z,7.48
2019-03-20T04:47:32.585Z,7.51
2019-03-20T04:50:02.953Z,7.52
2019-03-20T04:52:33.177Z,7.55
2019-03-20T04:55:03.704Z,7.58
2019-03-20T04:57:34.021Z,7.60
2019-03-20T05:00:04.743Z,7.62
2019-03-20T05:02:34.973Z,7.65
2019-03-20T05:05:05.356Z,7.67
2019-03-20T05:07:35.436Z,7.67
2019-03-20T05:10:16.716Z,7.69
2019-03-20T05:12:46.930Z,7.69
2019-03-20T05:15:17.131Z,7.70
2019-03-20T05:17:47.455Z,7.71
2019-03-20T05:20:17.580Z,7.76
2019-03-20T05:22:47.716Z,7.76
2019-03-20T05:25:17.836Z,7.78
2019-03-20T05:27:47.956Z,7.79
2019-03-20T05:30:18.334Z,7.80
2019-03-20T05:32:48.567Z,7.82
2019-03-20T05:35:18.617Z,7.84
2019-03-20T05:37:48.725Z,7.88
2019-03-20T05:40:18.960Z,7.90
2019-03-20T05:42:49.095Z,7.92
2019-03-20T05:45:19.313Z,7.96
2019-03-20T05:47:49.382Z,7.98
2019-03-20T05:50:19.588Z,8.00
2019-03-20T05:52:49.997Z,8.03
2019-03-20T05:55:20.235Z,8.08
2019-03-20T05:57:50.392Z,8.10
2019-03-20T06:00:21.005Z,8.12
2019-03-20T06:02:51.247Z,8.17
2019-03-20T06:05:21.370Z,8.21
2019-03-20T06:07:51.455Z,8.23
2019-03-20T06:10:21.597Z,8.26
2019-03-20T06:12:51.948Z,8.28
2019-03-20T06:15:24.544Z,8.28
2019-03-20T06:17:55.203Z,8.32
2019-03-20T06:20:25.645Z,8.35
2019-03-20T06:22:56.154Z,8.37
2019-03-20T06:25:26.521Z,8.42
2019-03-20T06:27:57.351Z,8.44
2019-03-20T06:30:27.831Z,8.48
2019-03-20T06:32:59.861Z,8.51
2019-03-20T06:35:30.471Z,8.55
2019-03-20T06:38:00.827Z,8.60
2019-03-20T06:40:31.213Z,8.65
2019-03-20T06:43:01.529Z,8.69
2019-03-20T06:45:31.974Z,8.74
2019-03-20T06:48:02.425Z,8.78
2019-03-20T06:50:32.891Z,8.79
2019-03-20T06:53:03.352Z,8.89
2019-03-20T06:55:33.741Z,8.98
2019-03-20T06:58:04.191Z,9.06
2019-03-20T07:01:16.090Z,9.14
2019-03-20T07:04:20.429Z,9.18
2019-03-20T07:07:15.355Z,9.19
2019-03-20T07:10:38.115Z,9.21
2019-03-20T07:13:08.564Z,9.25
2019-03-20T07:15:38.928Z,9.33
2019-03-20T07:18:09.431Z,9.40
2019-03-20T07:20:39.856Z,9.50
2019-03-20T07:23:10.737Z,9.57
2019-03-20T07:25:41.189Z,9.64
2019-03-20T07:28:11.563Z,9.69
2019-03-20T07:30:42.672Z,9.80
2019-03-20T07:33:13.057Z,9.85
2019-03-20T07:35:43.450Z,9.93
2019-03-20T07:38:13.919Z,9.99
2019-03-20T07:40:44.153Z,10.02
2019-03-20T07:43:14.433Z,10.10
2019-03-20T07:45:44.698Z,10.14
2019-03-20T07:48:22.003Z,10.14
2019-03-20T07:50:46.869Z,10.12
2019-03-20T07:53:17.037Z,10.10
2019-03-20T07:55:47.259Z,10.10
2019-03-20T07:58:17.513Z,10.12
2019-03-20T08:00:47.672Z,10.16
2019-03-20T08:03:17.958Z,10.23
2019-03-20T08:05:48.178Z,10.31
2019-03-20T08:08:18.532Z,10.38
2019-03-20T08:10:48.707Z,10.46
2019-03-20T08:13:19.090Z,10.54
2019-03-20T08:15:49.468Z,10.62
2019-03-20T08:18:19.594Z,10.74
2019-03-20T08:20:49.751Z,10.87
2019-03-20T08:23:20.040Z,10.94
2019-03-20T08:25:50.147Z,11.01
2019-03-20T08:28:20.299Z,11.03
2019-03-20T08:30:50.378Z,11.08
2019-03-20T08:33:20.872Z,11.08
2019-03-20T08:35:50.942Z,11.08
2019-03-20T08:38:25.460Z,11.14
2019-03-20T08:40:55.717Z,11.15
2019-03-20T08:43:25.904Z,11.16
2019-03-20T08:45:56.162Z,11.19
2019-03-20T08:48:26.457Z,11.22
2019-03-20T08:50:56.739Z,11.22
2019-03-20T08:53:26.867Z,11.21
2019-03-20T08:55:57.205Z,11.20
2019-03-20T08:58:27.370Z,11.18
2019-03-20T09:00:57.633Z,11.21
2019-03-20T09:03:27.782Z,11.24
2019-03-20T09:05:57.977Z,11.27
2019-03-20T09:08:29.801Z,11.32
2019-03-20T09:11:00.201Z,11.37
2019-03-20T09:13:30.368Z,11.40
2019-03-20T09:16:00.435Z,11.41
2019-03-20T09:18:30.606Z,11.46
2019-03-20T09:21:00.792Z,11.52
2019-03-20T09:23:31.024Z,11.53
2019-03-20T09:26:01.129Z,11.54
2019-03-20T09:28:31.409Z,11.58
2019-03-20T09:31:01.666Z,11.61
2019-03-20T09:33:31.847Z,11.64
2019-03-20T09:36:02.043Z,11.68
2019-03-20T09:38:42.738Z,11.73
2019-03-20T09:41:04.304Z,11.81
2019-03-20T09:43:34.516Z,11.96
2019-03-20T09:46:06.949Z,12.09
2019-03-20T09:48:37.083Z,12.15
2019-03-20T09:51:07.242Z,12.19
2019-03-20T09:56:16.065Z,12.30
2019-03-20T09:58:46.311Z,12.24
2019-03-20T10:01:16.530Z,12.23
2019-03-20T10:03:48.942Z,12.17
2019-03-20T10:06:19.111Z,12.14
2019-03-20T10:08:54.028Z,12.13
2019-03-20T10:11:21.447Z,12.11
2019-03-20T10:13:54.932Z,12.05
2019-03-20T10:16:25.248Z,12.00
2019-03-20T10:18:55.470Z,12.04
2019-03-20T10:21:25.669Z,12.03
2019-03-20T10:23:55.952Z,12.03
2019-03-20T10:26:26.118Z,12.02
2019-03-20T10:28:56.247Z,12.02
2019-03-20T10:31:26.375Z,12.01
2019-03-20T10:33:56.625Z,11.97
2019-03-20T10:36:26.935Z,11.90
2019-03-20T10:39:06.018Z,11.83
2019-03-20T10:41:29.464Z,11.78
2019-03-20T10:43:59.788Z,11.76
2019-03-20T10:46:30.521Z,11.76
2019-03-20T10:49:00.798Z,11.78
2019-03-20T10:51:31.052Z,11.83
2019-03-20T10:54:01.380Z,11.87
2019-03-20T10:56:31.721Z,11.91
2019-03-20T10:59:02.015Z,11.96
2019-03-20T11:01:42.063Z,12.03
2019-03-20T11:04:04.632Z,12.04
2019-03-20T11:06:34.969Z,12.08
2019-03-20T11:09:17.630Z,12.11
2019-03-20T11:11:40.291Z,12.15
2019-03-20T11:14:10.638Z,12.17
2019-03-20T11:16:40.960Z,12.18
2019-03-20T11:19:11.214Z,12.15
2019-03-20T11:21:41.424Z,12.14
2019-03-20T11:24:11.784Z,12.16
2019-03-20T11:26:41.990Z,12.19
2019-03-20T11:29:12.149Z,12.26
2019-03-20T11:31:42.470Z,12.27
2019-03-20T11:34:13.043Z,12.27
2019-03-20T11:36:43.460Z,12.29
2019-03-20T11:39:13.768Z,12.29
2019-03-20T11:41:43.984Z,12.29
2019-03-20T11:44:14.417Z,12.29
2019-03-20T11:46:44.741Z,12.29
2019-03-20T11:49:15.136Z,12.27
2019-03-20T11:51:45.389Z,12.25
2019-03-20T11:54:15.877Z,12.24
2019-03-20T11:56:46.070Z,12.23
2019-03-20T11:59:16.356Z,12.20
2019-03-20T12:01:46.580Z,12.20
2019-03-20T12:04:16.735Z,12.17
2019-03-20T12:06:46.883Z,12.14
2019-03-20T12:09:17.080Z,12.10
2019-03-20T12:11:47.183Z,12.01
2019-03-20T12:14:17.473Z,11.96
2019-03-20T12:16:47.752Z,11.89
2019-03-20T12:19:17.908Z,11.81
2019-03-20T12:21:48.242Z,11.77
2019-03-20T12:24:18.329Z,11.80
2019-03-20T12:26:48.665Z,11.84
2019-03-20T12:29:19.048Z,11.85
2019-03-20T12:31:49.354Z,11.85
2019-03-20T12:34:19.491Z,11.87
2019-03-20T12:36:49.802Z,11.88
2019-03-20T12:39:20.110Z,11.92
2019-03-20T12:41:50.350Z,11.95
2019-03-20T12:44:20.634Z,11.94
2019-03-20T12:46:50.904Z,11.98
2019-03-20T12:49:21.059Z,12.01
2019-03-20T12:51:51.373Z,12.05
2019-03-20T12:54:21.622Z,12.11
2019-03-20T12:56:52.235Z,12.17
2019-03-20T12:59:22.542Z,12.24
2019-03-20T13:01:52.828Z,12.29
2019-03-20T13:04:24.948Z,12.34
2019-03-20T13:06:55.285Z,12.39
2019-03-20T13:09:25.567Z,12.39
2019-03-20T13:11:55.850Z,12.38
2019-03-20T13:14:26.181Z,12.37
2019-03-20T13:16:56.572Z,12.42
2019-03-20T13:19:26.978Z,12.48
2019-03-20T13:21:57.316Z,12.52
2019-03-20T13:24:27.584Z,12.53
2019-03-20T13:26:58.109Z,12.53
2019-03-20T13:29:28.456Z,12.56
2019-03-20T13:31:58.693Z,12.58
2019-03-20T13:34:29.051Z,12.60
2019-03-20T13:36:59.345Z,12.60
2019-03-20T13:39:29.683Z,12.56
2019-03-20T13:41:59.817Z,12.56
2019-03-20T13:44:30.634Z,12.62
2019-03-20T13:47:01.102Z,12.65
2019-03-20T13:49:31.557Z,12.65
2019-03-20T13:52:01.796Z,12.67
2019-03-20T13:54:32.029Z,12.70
2019-03-20T13:57:02.304Z,12.71
2019-03-20T13:59:32.460Z,12.70
2019-03-20T14:02:02.795Z,12.72
2019-03-20T14:04:32.992Z,12.73
2019-03-20T14:07:03.101Z,12.77
2019-03-20T14:09:33.326Z,12.79
2019-03-20T14:12:03.959Z,12.80
2019-03-20T14:14:34.256Z,12.83
2019-03-20T14:17:04.701Z,12.85
2019-03-20T14:19:35.011Z,12.85
2019-03-20T14:22:05.291Z,12.88
2019-03-20T14:24:36.115Z,12.89
2019-03-20T14:27:07.105Z,12.92
2019-03-20T14:29:39.882Z,12.91
2019-03-20T14:32:13.377Z,12.90
2019-03-20T14:34:43.727Z,12.90
2019-03-20T14:37:14.092Z,12.91
2019-03-20T14:39:47.639Z,12.92
2019-03-20T14:42:17.950Z,12.92
2019-03-20T14:44:52.729Z,12.92
2019-03-20T14:47:23.014Z,12.92
2019-03-20T14:49:53.326Z,12.91
2019-03-20T14:52:23.636Z,12.91
2019-03-20T14:54:53.874Z,12.90
2019-03-20T14:57:25.850Z,12.89
2019-03-20T14:59:56.079Z,12.88
2019-03-20T15:02:26.394Z,12.87
2019-03-20T15:04:56.771Z,12.85
2019-03-20T15:07:26.881Z,12.83
2019-03-20T15:09:57.118Z,12.82
2019-03-20T15:12:27.462Z,12.81
2019-03-20T15:14:57.649Z,12.89
2019-03-20T15:17:28.122Z,12.88
2019-03-20T15:19:58.310Z,12.88
2019-03-20T15:22:28.440Z,12.87
2019-03-20T15:24:58.772Z,12.85
2019-03-20T15:27:28.957Z,12.84
2019-03-20T15:30:04.337Z,12.86
2019-03-20T15:32:35.738Z,12.90
2019-03-20T15:35:10.360Z,12.92
2019-03-20T15:37:43.184Z,12.96
2019-03-20T15:40:15.703Z,12.99
2019-03-20T15:42:45.956Z,13.02
2019-03-20T15:45:16.773Z,13.05
2019-03-20T15:47:46.975Z,13.05
2019-03-20T15:50:17.875Z,13.00
2019-03-20T15:52:48.177Z,12.95
2019-03-20T15:55:25.197Z,12.91
2019-03-20T15:57:55.473Z,12.89
2019-03-20T16:00:25.786Z,12.88
2019-03-20T16:03:00.082Z,12.88
2019-03-20T16:05:30.229Z,12.89
2019-03-20T16:08:00.356Z,12.88
2019-03-20T16:10:33.695Z,12.88
2019-03-20T16:13:03.885Z,12.90
2019-03-20T16:15:34.306Z,12.89
2019-03-20T16:18:04.815Z,12.91
2019-03-20T16:20:35.326Z,12.93
2019-03-20T16:23:07.100Z,12.92
2019-03-20T16:25:37.524Z,12.93
2019-03-20T16:28:08.140Z,12.95
2019-03-20T16:30:38.643Z,12.98
2019-03-20T16:33:09.083Z,13.00
2019-03-20T16:35:39.604Z,13.05
2019-03-20T16:38:10.356Z,13.09
2019-03-20T16:40:40.803Z,13.13
2019-03-20T16:43:11.199Z,13.17
2019-03-20T16:45:41.713Z,13.17
2019-03-20T16:48:12.145Z,13.15
2019-03-20T16:51:11.402Z,13.13
2019-03-20T16:53:41.333Z,13.09
2019-03-20T16:56:11.581Z,13.05
2019-03-20T16:58:41.714Z,13.03
2019-03-20T17:01:11.944Z,13.00
2019-03-20T17:03:42.076Z,12.98
2019-03-20T17:06:12.355Z,12.97
2019-03-20T17:08:42.512Z,12.97
2019-03-20T17:11:12.697Z,12.96
2019-03-20T17:13:43.008Z,12.97
2019-03-20T17:16:13.235Z,12.95
2019-03-20T17:18:43.405Z,12.92
2019-03-20T17:21:13.944Z,12.90
2019-03-20T17:23:44.436Z,12.89
2019-03-20T17:26:15.040Z,12.87
2019-03-20T17:28:45.423Z,12.88
2019-03-20T17:31:15.870Z,12.86
2019-03-20T17:33:46.399Z,12.86
2019-03-20T17:36:18.425Z,12.87
2019-03-20T17:38:48.861Z,12.86
2019-03-20T17:41:43.132Z,12.85
2019-03-20T17:44:13.643Z,12.84
2019-03-20T17:46:43.915Z,12.79
2019-03-20T17:49:13.962Z,12.78
2019-03-20T17:51:44.032Z,12.75
2019-03-20T17:54:14.192Z,12.72
2019-03-20T17:56:44.253Z,12.69
2019-03-20T17:59:14.396Z,12.64
2019-03-20T18:01:44.533Z,12.60
2019-03-20T18:04:14.618Z,12.56
2019-03-20T18:06:44.768Z,12.52
2019-03-20T18:09:15.023Z,12.49
2019-03-20T18:11:47.776Z,12.49
2019-03-20T18:14:17.113Z,12.47
2019-03-20T18:16:47.302Z,12.46
2019-03-20T18:19:17.443Z,12.43
2019-03-20T18:21:47.666Z,12.42
2019-03-20T18:24:17.738Z,12.43
2019-03-20T18:26:47.878Z,12.44
2019-03-20T18:29:18.055Z,12.43
2019-03-20T18:31:48.382Z,12.45
2019-03-20T18:34:18.646Z,12.45
2019-03-20T18:36:49.382Z,12.45
2019-03-20T18:39:20.640Z,12.44
2019-03-20T18:41:57.806Z,12.44
2019-03-20T18:44:22.850Z,12.40
2019-03-20T18:46:53.097Z,12.35
2019-03-20T18:49:23.304Z,12.31
2019-03-20T18:51:53.515Z,12.26
2019-03-20T18:54:23.748Z,12.22
2019-03-20T18:56:53.798Z,12.16
2019-03-20T18:59:23.947Z,12.08
2019-03-20T19:01:54.098Z,11.99
2019-03-20T19:04:26.090Z,11.89
2019-03-20T19:06:56.220Z,11.79
2019-03-20T19:09:26.375Z,11.70
2019-03-20T19:11:56.563Z,11.61
2019-03-20T19:14:26.624Z,11.54
2019-03-20T19:16:56.901Z,11.47
2019-03-20T19:19:27.067Z,11.39
2019-03-20T19:21:57.291Z,11.33
2019-03-20T19:24:27.497Z,11.26
2019-03-20T19:26:57.669Z,11.18
2019-03-20T19:29:27.959Z,11.21
2019-03-20T19:31:58.203Z,11.08
2019-03-20T19:34:28.441Z,11.00
2019-03-20T19:36:58.748Z,10.94
2019-03-20T19:39:29.192Z,10.89
2019-03-20T19:41:59.351Z,10.86
2019-03-20T19:44:31.539Z,10.81
2019-03-20T19:47:01.863Z,10.76
2019-03-20T19:49:32.134Z,10.71
2019-03-20T19:52:02.255Z,10.68
2019-03-20T19:54:32.506Z,10.84
2019-03-20T19:57:02.909Z,10.76
2019-03-20T19:59:33.009Z,10.71
2019-03-20T20:02:03.157Z,10.66
2019-03-20T20:04:33.295Z,10.62
2019-03-20T20:07:03.451Z,10.58
2019-03-20T20:09:33.518Z,10.54
2019-03-20T20:12:03.623Z,10.51
2019-03-20T20:14:33.709Z,10.46
2019-03-20T20:17:03.820Z,10.44
2019-03-20T20:19:34.355Z,10.43
2019-03-20T20:22:05.316Z,10.44
2019-03-20T20:24:36.017Z,10.40
2019-03-20T20:27:09.724Z,10.39
2019-03-20T20:29:40.209Z,10.38
2019-03-20T20:34:38.583Z,10.40
2019-03-20T20:37:09.214Z,10.38
2019-03-20T20:39:40.302Z,10.35
2019-03-20T20:42:10.881Z,10.34
2019-03-20T20:44:41.535Z,10.31
2019-03-20T20:47:12.559Z,10.27
2019-03-20T20:49:43.391Z,10.25
2019-03-20T20:52:19.448Z,10.26
2019-03-20T20:57:17.053Z,10.26
2019-03-20T20:59:53.516Z,10.19
2019-03-20T21:02:24.099Z,10.17
2019-03-20T21:04:54.644Z,10.17
2019-03-20T21:07:26.620Z,10.18
2019-03-20T21:09:57.179Z,10.23
2019-03-20T21:12:27.641Z,10.28
2019-03-20T21:14:58.403Z,10.29
2019-03-20T21:18:56.396Z,10.31
2019-03-20T21:21:40.124Z,10.32
2019-03-20T21:24:27.842Z,10.32
2019-03-20T21:28:03.093Z,10.35
2019-03-20T21:31:13.229Z,10.36
2019-03-20T21:34:58.991Z,10.35
2019-03-20T21:38:09.515Z,10.34
2019-03-20T21:41:24.399Z,10.26
2019-03-20T21:44:34.479Z,10.19
2019-03-20T21:47:33.243Z,10.09
2019-03-20T21:51:20.529Z,10.01
2019-03-20T21:54:59.138Z,9.95
2019-03-20T21:58:12.089Z,9.88
2019-03-20T22:01:48.950Z,9.87
2019-03-20T22:04:20.204Z,9.89
2019-03-20T22:07:10.975Z,9.89
2019-03-20T22:10:39.256Z,9.88
2019-03-20T22:13:19.719Z,9.84
2019-03-20T22:16:26.631Z,9.75
2019-03-20T22:19:41.553Z,9.74
2019-03-20T22:23:31.279Z,9.67
2019-03-20T22:27:21.774Z,9.63
2019-03-20T22:29:52.679Z,9.55
2019-03-20T22:33:23.804Z,9.48
2019-03-20T22:36:19.971Z,9.48
2019-03-20T22:40:07.828Z,9.40
2019-03-20T22:43:04.254Z,9.39
2019-03-20T22:46:31.655Z,9.35
2019-03-20T22:50:26.783Z,9.34
2019-03-20T22:53:52.043Z,9.31
2019-03-20T22:57:33.502Z,9.33
2019-03-20T23:00:05.441Z,9.31
2019-03-20T23:03:02.651Z,9.32
2019-03-20T23:05:33.800Z,9.35
2019-03-20T23:08:13.394Z,9.35
2019-03-20T23:10:45.101Z,9.36
2019-03-20T23:13:19.201Z,9.35
2019-03-20T23:15:49.169Z,9.35
2019-03-20T23:18:20.408Z,9.39
2019-03-20T23:20:51.536Z,9.44
2019-03-20T23:23:22.541Z,9.48
2019-03-20T23:25:53.478Z,9.52
2019-03-20T23:28:25.246Z,9.54
2019-03-20T23:30:56.343Z,9.58
2019-03-20T23:33:27.369Z,9.62
2019-03-20T23:35:58.542Z,9.65
2019-03-20T23:38:29.626Z,9.68
2019-03-20T23:41:00.603Z,9.70
2019-03-20T23:43:31.476Z,9.71
2019-03-20T23:46:02.594Z,9.74
2019-03-20T23:49:00.048Z,9.76
2019-03-20T23:51:31.082Z,9.79
2019-03-20T23:54:02.122Z,9.81
2019-03-20T23:56:34.992Z,9.85
2019-03-20T23:59:06.743Z,9.87
